createdAt,value
2022-12-11T00:00:49.956Z,100277.50
2022-12-11T00:03:17.647Z,100274.63
2022-12-11T00:05:45.247Z,100266.72
2022-12-11T00:08:13.305Z,100276.38
2022-12-11T00:10:39.857Z,100267.31
2022-12-11T00:13:06.994Z,100263.06
2022-12-11T00:15:33.777Z,100254.47
2022-12-11T00:18:00.457Z,100263.47
2022-12-11T00:20:27.801Z,100262.28
2022-12-11T00:22:55.077Z,100264.09
2022-12-11T00:25:23.077Z,100263.53
2022-12-11T00:27:49.744Z,100267.94
2022-12-11T00:30:16.475Z,100270.13
2022-12-11T00:32:44.046Z,100271.84
2022-12-11T00:35:11.434Z,100264.34
2022-12-11T00:37:38.496Z,100273.78
2022-12-11T00:40:05.954Z,100268.81
2022-12-11T00:42:33.730Z,100268.19
2022-12-11T00:45:00.994Z,100268.19
2022-12-11T00:47:27.846Z,100260.59
2022-12-11T00:49:55.390Z,100260.63
2022-12-11T00:52:22.633Z,100265.31
2022-12-11T00:54:49.485Z,100257.59
2022-12-11T00:57:16.167Z,100263.06
2022-12-11T00:59:42.890Z,100263.88
2022-12-11T01:02:09.520Z,100264.06
2022-12-11T01:04:37.038Z,100258.22
2022-12-11T01:07:04.106Z,100261.09
2022-12-11T01:09:49.983Z,100257.75
2022-12-11T01:12:16.806Z,100267.25
2022-12-11T01:14:43.858Z,100264.22
2022-12-11T01:17:11.891Z,100253.25
2022-12-11T01:19:39.010Z,100260.78
2022-12-11T01:22:06.470Z,100259.66
2022-12-11T01:24:33.309Z,100258.97
2022-12-11T01:27:00.302Z,100260.16
2022-12-11T01:29:27.249Z,100257.34
2022-12-11T01:31:53.803Z,100249.66
2022-12-11T01:34:20.709Z,100252.91
2022-12-11T01:36:47.363Z,100254.38
2022-12-11T01:39:13.965Z,100247.84
2022-12-11T01:41:40.444Z,100254.63
2022-12-11T01:44:28.398Z,100249.75
2022-12-11T01:46:55.011Z,100249.72
2022-12-11T01:49:25.140Z,100252.44
2022-12-11T01:51:59.285Z,100241.94
2022-12-11T01:54:28.242Z,100255.06
2022-12-11T01:57:00.918Z,100250.41
2022-12-11T01:59:29.273Z,100237.56
2022-12-11T02:02:00.795Z,100244.69
2022-12-11T02:04:29.723Z,100244.91
2022-12-11T02:06:56.602Z,100238.63
2022-12-11T02:09:28.247Z,100239.06
2022-12-11T02:12:11.144Z,100241.31
2022-12-11T02:14:58.119Z,100238.56
2022-12-11T02:17:50.849Z,100239.44
2022-12-11T02:20:23.567Z,100236.75
2022-12-11T02:23:15.394Z,100236.00
2022-12-11T02:26:16.525Z,100226.75
2022-12-11T02:28:51.003Z,100235.94
2022-12-11T02:31:26.089Z,100236.63
2022-12-11T02:34:13.282Z,100231.41
2022-12-11T02:36:44.429Z,100230.03
2022-12-11T02:39:14.225Z,100234.44
2022-12-11T02:41:46.591Z,100232.81
2022-12-11T02:44:15.961Z,100241.09
2022-12-11T02:46:44.513Z,100227.97
2022-12-11T02:49:13.566Z,100232.59
2022-12-11T02:51:42.048Z,100226.91
2022-12-11T02:54:16.856Z,100220.88
2022-12-11T02:56:49.783Z,100224.97
2022-12-11T02:59:23.420Z,100216.34
2022-12-11T03:01:50.842Z,100212.28
2022-12-11T03:04:17.515Z,100221.00
2022-12-11T03:06:50.103Z,100219.81
2022-12-11T03:09:16.878Z,100211.34
2022-12-11T03:11:43.422Z,100218.38
2022-12-11T03:14:10.194Z,100218.94
2022-12-11T03:16:59.859Z,100219.19
2022-12-11T03:19:37.090Z,100214.41
2022-12-11T03:22:12.336Z,100216.69
2022-12-11T03:24:53.993Z,100220.00
2022-12-11T03:27:34.348Z,100218.25
2022-12-11T03:30:11.503Z,100225.22
2022-12-11T03:32:53.002Z,100213.91
2022-12-11T03:35:27.741Z,100217.88
2022-12-11T03:37:56.631Z,100211.53
2022-12-11T03:40:25.901Z,100225.72
2022-12-11T03:42:56.993Z,100219.44
2022-12-11T03:45:27.055Z,100222.97
2022-12-11T03:47:58.111Z,100227.22
2022-12-11T03:50:27.877Z,100224.91
2022-12-11T03:52:56.410Z,100222.25
2022-12-11T03:55:24.647Z,100217.63
2022-12-11T03:57:51.164Z,100228.09
2022-12-11T04:00:21.043Z,100229.19
2022-12-11T04:03:13.321Z,100212.78
2022-12-11T04:05:53.217Z,100218.50
2022-12-11T04:08:20.959Z,100205.56
2022-12-11T04:10:48.963Z,100207.25
2022-12-11T04:13:16.048Z,100195.34
2022-12-11T04:15:43.211Z,100200.22
2022-12-11T04:18:28.861Z,100190.50
2022-12-11T04:21:15.497Z,100193.41
2022-12-11T04:24:00.923Z,100205.38
2022-12-11T04:26:28.006Z,100208.44
2022-12-11T04:28:54.824Z,100206.41
2022-12-11T04:31:23.966Z,100210.16
2022-12-11T04:33:50.789Z,100208.03
2022-12-11T04:36:18.417Z,100204.19
2022-12-11T04:38:46.235Z,100205.72
2022-12-11T04:41:15.103Z,100206.06
2022-12-11T04:43:46.297Z,100206.06
2022-12-11T04:46:20.112Z,100207.06
2022-12-11T04:48:49.267Z,100218.06
2022-12-11T04:51:20.096Z,100204.25
2022-12-11T04:53:46.850Z,100203.13
2022-12-11T04:56:16.456Z,100197.97
2022-12-11T04:58:44.163Z,100199.84
2022-12-11T05:01:15.612Z,100200.44
2022-12-11T05:03:43.361Z,100195.97
2022-12-11T05:06:11.528Z,100192.31
2022-12-11T05:08:40.448Z,100193.34
2022-12-11T05:11:14.763Z,100187.72
2022-12-11T05:13:41.874Z,100186.75
2022-12-11T05:16:12.400Z,100183.66
2022-12-11T05:18:40.307Z,100182.50
2022-12-11T05:21:11.253Z,100181.06
2022-12-11T05:23:39.008Z,100176.38
2022-12-11T05:26:09.316Z,100174.25
2022-12-11T05:28:38.721Z,100173.78
2022-12-11T05:31:12.994Z,100171.84
2022-12-11T05:33:40.132Z,100174.97
2022-12-11T05:36:08.075Z,100180.75
2022-12-11T05:38:35.051Z,100164.81
2022-12-11T05:41:03.336Z,100177.47
2022-12-11T05:43:33.325Z,100171.69
2022-12-11T05:46:31.685Z,100167.31
2022-12-11T05:49:01.755Z,100184.88
2022-12-11T05:51:29.768Z,100179.78
2022-12-11T05:53:57.554Z,100177.53
2022-12-11T05:56:27.555Z,100180.63
2022-12-11T05:58:56.203Z,100178.00
2022-12-11T06:01:30.359Z,100166.06
2022-12-11T06:03:59.264Z,100167.44
2022-12-11T06:06:27.666Z,100169.19
2022-12-11T06:08:57.296Z,100171.16
2022-12-11T06:11:24.773Z,100173.44
2022-12-11T06:13:52.909Z,100162.59
2022-12-11T06:16:20.327Z,100170.31
2022-12-11T06:18:48.839Z,100175.66
2022-12-11T06:21:21.640Z,100162.66
2022-12-11T06:23:51.160Z,100167.66
2022-12-11T06:26:18.996Z,100168.56
2022-12-11T06:28:46.336Z,100159.88
2022-12-11T06:31:14.048Z,100155.38
2022-12-11T06:33:43.659Z,100145.66
2022-12-11T06:36:14.003Z,100151.34
2022-12-11T06:38:40.824Z,100147.16
2022-12-11T06:41:08.415Z,100154.13
2022-12-11T06:43:37.615Z,100153.88
2022-12-11T06:46:18.950Z,100165.78
2022-12-11T06:48:47.855Z,100165.94
2022-12-11T06:51:16.819Z,100159.88
2022-12-11T06:53:44.424Z,100164.84
2022-12-11T06:56:15.580Z,100170.69
2022-12-11T06:58:43.403Z,100171.16
2022-12-11T07:01:27.933Z,100163.31
2022-12-11T07:03:59.992Z,100159.09
2022-12-11T07:06:28.594Z,100164.75
2022-12-11T07:08:56.086Z,100162.47
2022-12-11T07:11:23.254Z,100162.00
2022-12-11T07:13:51.077Z,100165.75
2022-12-11T07:16:18.934Z,100172.13
2022-12-11T07:18:49.265Z,100169.56
2022-12-11T07:21:17.462Z,100177.41
2022-12-11T07:23:45.278Z,100171.56
2022-12-11T07:26:15.011Z,100166.44
2022-12-11T07:28:42.641Z,100170.72
2022-12-11T07:31:13.060Z,100171.66
2022-12-11T07:33:40.670Z,100174.41
2022-12-11T07:36:10.041Z,100166.78
2022-12-11T07:38:37.573Z,100164.31
2022-12-11T07:41:07.135Z,100159.63
2022-12-11T07:43:35.678Z,100164.44
2022-12-11T07:46:05.630Z,100157.84
2022-12-11T07:48:38.650Z,100169.66
2022-12-11T07:51:12.449Z,100171.13
2022-12-11T07:53:43.645Z,100181.00
2022-12-11T07:56:11.031Z,100185.84
2022-12-11T07:58:38.867Z,100181.47
2022-12-11T08:01:06.541Z,100191.31
2022-12-11T08:03:34.450Z,100189.00
2022-12-11T08:06:01.848Z,100186.38
2022-12-11T08:08:28.971Z,100178.00
2022-12-11T08:10:56.086Z,100182.16
2022-12-11T08:13:23.517Z,100177.63
2022-12-11T08:15:50.206Z,100174.41
2022-12-11T08:18:17.206Z,100170.50
2022-12-11T08:20:44.329Z,100172.63
2022-12-11T08:23:12.006Z,100171.06
2022-12-11T08:25:39.085Z,100167.06
2022-12-11T08:28:06.170Z,100170.31
2022-12-11T08:30:35.557Z,100166.78
2022-12-11T08:33:03.491Z,100163.88
2022-12-11T08:35:31.262Z,100162.25
2022-12-11T08:37:58.278Z,100163.00
2022-12-11T08:40:25.741Z,100171.69
2022-12-11T08:42:53.189Z,100171.00
2022-12-11T08:45:21.179Z,100172.28
2022-12-11T08:47:48.305Z,100164.88
2022-12-11T08:50:15.498Z,100167.03
2022-12-11T08:52:42.536Z,100172.97
2022-12-11T08:55:09.887Z,100163.50
2022-12-11T08:57:39.651Z,100171.44
2022-12-11T09:00:08.924Z,100176.47
2022-12-11T09:02:36.278Z,100166.03
2022-12-11T09:05:07.733Z,100171.94
2022-12-11T09:07:36.749Z,100166.47
2022-12-11T09:10:05.043Z,100162.25
2022-12-11T09:12:35.130Z,100171.44
2022-12-11T09:15:04.021Z,100165.69
2022-12-11T09:17:31.904Z,100171.81
2022-12-11T09:19:58.909Z,100175.25
2022-12-11T09:22:25.665Z,100180.72
2022-12-11T09:24:52.377Z,100183.75
2022-12-11T09:27:21.189Z,100180.50
2022-12-11T09:29:48.544Z,100177.97
2022-12-11T09:32:15.726Z,100179.59
2022-12-11T09:34:42.960Z,100179.13
2022-12-11T09:37:09.896Z,100174.59
2022-12-11T09:39:37.358Z,100171.56
2022-12-11T09:42:07.370Z,100171.72
2022-12-11T09:44:39.747Z,100168.22
2022-12-11T09:47:19.537Z,100163.38
2022-12-11T09:49:50.328Z,100158.06
2022-12-11T09:52:29.451Z,100159.84
2022-12-11T09:55:00.800Z,100154.19
2022-12-11T09:57:39.566Z,100155.66
2022-12-11T10:00:16.101Z,100160.03
2022-12-11T10:02:55.041Z,100162.28
2022-12-11T10:05:41.112Z,100150.50
2022-12-11T10:08:30.413Z,100152.91
2022-12-11T10:11:07.504Z,100152.44
2022-12-11T10:14:17.848Z,100146.41
2022-12-11T10:16:48.722Z,100148.72
2022-12-11T10:19:26.315Z,100143.53
2022-12-11T10:21:54.398Z,100144.97
2022-12-11T10:25:07.674Z,100148.06
2022-12-11T10:27:23.847Z,100141.78
2022-12-11T10:30:14.001Z,100143.72
2022-12-11T10:32:51.575Z,100128.84
2022-12-11T10:35:27.698Z,100123.81
2022-12-11T10:38:12.087Z,100123.66
2022-12-11T10:40:43.020Z,100123.75
2022-12-11T10:43:10.900Z,100111.78
2022-12-11T10:45:38.247Z,100109.72
2022-12-11T10:48:07.333Z,100110.78
2022-12-11T10:50:34.598Z,100114.22
2022-12-11T10:53:01.945Z,100107.94
2022-12-11T10:55:31.174Z,100112.56
2022-12-11T10:58:01.575Z,100109.84
2022-12-11T11:00:34.036Z,100112.94
2022-12-11T11:03:02.643Z,100109.50
2022-12-11T11:05:32.294Z,100115.13
2022-12-11T11:08:19.471Z,100105.03
2022-12-11T11:10:57.663Z,100105.56
2022-12-11T11:13:27.832Z,100096.81
2022-12-11T11:16:02.865Z,100097.41
2022-12-11T11:18:31.783Z,100093.72
2022-12-11T11:20:59.513Z,100095.09
2022-12-11T11:23:27.617Z,100091.53
2022-12-11T11:26:07.217Z,100088.78
2022-12-11T11:28:37.761Z,100091.38
2022-12-11T11:31:13.667Z,100084.44
2022-12-11T11:34:05.704Z,100081.28
2022-12-11T11:36:38.956Z,100068.78
2022-12-11T11:39:20.792Z,100073.34
2022-12-11T11:42:12.320Z,100067.16
2022-12-11T11:44:45.079Z,100055.69
2022-12-11T11:47:19.170Z,100065.97
2022-12-11T11:50:03.249Z,100069.31
2022-12-11T11:52:41.992Z,100060.59
2022-12-11T11:55:22.307Z,100063.63
2022-12-11T11:57:52.069Z,100057.78
2022-12-11T12:00:33.327Z,100057.56
2022-12-11T12:03:10.961Z,100054.69
2022-12-11T12:05:57.074Z,100056.75
2022-12-11T12:08:41.293Z,100048.47
2022-12-11T12:11:38.925Z,100055.44
2022-12-11T12:14:51.980Z,100047.03
2022-12-11T12:17:41.505Z,100051.00
2022-12-11T12:20:45.809Z,100051.66
2022-12-11T12:23:50.194Z,100051.25
2022-12-11T12:26:31.597Z,100047.31
2022-12-11T12:29:20.852Z,100037.78
2022-12-11T12:32:08.279Z,100047.38
2022-12-11T12:34:50.992Z,100057.09
2022-12-11T12:38:07.428Z,100055.28
2022-12-11T12:41:03.655Z,100053.31
2022-12-11T12:43:49.074Z,100056.53
2022-12-11T12:46:52.311Z,100046.56
2022-12-11T12:49:42.511Z,100043.81
2022-12-11T12:52:29.549Z,100051.94
2022-12-11T12:55:20.988Z,100054.78
2022-12-11T12:57:57.672Z,100052.59
2022-12-11T13:00:30.564Z,100048.72
2022-12-11T13:03:02.806Z,100059.94
2022-12-11T13:05:33.668Z,100048.38
2022-12-11T13:08:04.663Z,100046.06
2022-12-11T13:10:37.502Z,100051.19
2022-12-11T13:13:25.310Z,100050.31
2022-12-11T13:15:52.023Z,100040.19
2022-12-11T13:18:39.169Z,100047.69
2022-12-11T13:21:27.265Z,100045.53
2022-12-11T13:23:54.447Z,100048.13
2022-12-11T13:26:31.680Z,100057.72
2022-12-11T13:28:58.995Z,100047.44
2022-12-11T13:31:38.005Z,100057.00
2022-12-11T13:34:22.264Z,100054.44
2022-12-11T13:36:50.943Z,100048.03
2022-12-11T13:39:22.513Z,100040.81
2022-12-11T13:41:54.589Z,100038.53
2022-12-11T13:44:29.087Z,100043.78
2022-12-11T13:46:58.544Z,100047.31
2022-12-11T13:49:31.092Z,100045.06
2022-12-11T13:51:59.648Z,100052.41
2022-12-11T13:54:28.246Z,100048.84
2022-12-11T13:57:15.001Z,100051.31
2022-12-11T13:59:47.952Z,100046.03
2022-12-11T14:02:44.924Z,100054.03
2022-12-11T14:05:13.515Z,100047.50
2022-12-11T14:07:44.171Z,100061.56
2022-12-11T14:10:15.026Z,100056.47
2022-12-11T14:12:59.023Z,100059.09
2022-12-11T14:15:28.986Z,100064.97
2022-12-11T14:20:32.468Z,100062.91
2022-12-11T14:23:07.078Z,100058.88
2022-12-11T14:25:34.224Z,100058.09
2022-12-11T14:28:01.681Z,100055.88
2022-12-11T14:30:32.154Z,100055.88
2022-12-11T14:33:02.581Z,100051.88
2022-12-11T14:35:38.661Z,100062.09
2022-12-11T14:38:15.024Z,100064.19
2022-12-11T14:40:45.039Z,100064.19
2022-12-11T14:43:20.354Z,100063.44
2022-12-11T14:45:50.173Z,100068.91
2022-12-11T14:48:22.232Z,100071.16
2022-12-11T14:50:55.187Z,100071.66
2022-12-11T14:53:27.858Z,100072.94
2022-12-11T14:55:57.803Z,100066.00
2022-12-11T14:58:26.954Z,100068.59
2022-12-11T15:01:07.587Z,100069.09
2022-12-11T15:03:37.293Z,100073.44
2022-12-11T15:06:25.822Z,100067.47
2022-12-11T15:08:54.357Z,100077.16
2022-12-11T15:11:23.610Z,100074.09
2022-12-11T15:13:59.031Z,100076.81
2022-12-11T15:16:28.964Z,100075.38
2022-12-11T15:18:58.698Z,100072.00
2022-12-11T15:21:30.737Z,100071.34
2022-12-11T15:24:00.450Z,100077.28
2022-12-11T15:26:44.786Z,100078.91
2022-12-11T15:29:47.186Z,100082.47
2022-12-11T15:32:14.083Z,100078.44
2022-12-11T15:34:53.049Z,100085.22
2022-12-11T15:37:26.810Z,100089.25
2022-12-11T15:39:55.269Z,100091.84
2022-12-11T15:42:29.836Z,100086.34
2022-12-11T15:44:57.384Z,100085.06
2022-12-11T15:47:27.973Z,100087.97
2022-12-11T15:49:58.516Z,100079.72
2022-12-11T15:52:25.672Z,100084.75
2022-12-11T15:54:53.075Z,100090.53
2022-12-11T15:57:23.714Z,100089.75
2022-12-11T15:59:53.942Z,100095.41
2022-12-11T16:02:21.463Z,100092.81
2022-12-11T16:04:50.677Z,100094.56
2022-12-11T16:07:22.132Z,100087.97
2022-12-11T16:09:49.902Z,100096.19
2022-12-11T16:12:17.370Z,100090.84
2022-12-11T16:14:46.190Z,100095.56
2022-12-11T16:17:14.823Z,100097.16
2022-12-11T16:19:43.210Z,100094.25
2022-12-11T16:22:11.116Z,100103.78
2022-12-11T16:24:38.442Z,100094.09
2022-12-11T16:27:07.545Z,100095.53
2022-12-11T16:29:35.659Z,100093.09
2022-12-11T16:32:02.810Z,100095.53
2022-12-11T16:34:29.877Z,100090.84
2022-12-11T16:37:00.187Z,100090.69
2022-12-11T16:39:27.400Z,100084.88
2022-12-11T16:41:54.283Z,100090.03
2022-12-11T16:44:23.959Z,100084.72
2022-12-11T16:46:52.132Z,100079.38
2022-12-11T16:49:20.360Z,100081.97
2022-12-11T16:51:47.053Z,100084.25
2022-12-11T16:54:14.134Z,100081.16
2022-12-11T16:56:41.477Z,100081.97
2022-12-11T16:59:09.093Z,100076.13
2022-12-11T17:01:36.331Z,100081.00
2022-12-11T17:04:03.003Z,100084.88
2022-12-11T17:06:29.599Z,100070.84
2022-12-11T17:08:56.360Z,100074.41
2022-12-11T17:11:26.034Z,100068.75
2022-12-11T17:13:55.156Z,100082.00
2022-12-11T17:16:25.916Z,100082.63
2022-12-11T17:18:53.288Z,100079.41
2022-12-11T17:21:22.115Z,100081.19
2022-12-11T17:23:50.370Z,100072.94
2022-12-11T17:26:18.210Z,100075.34
2022-12-11T17:28:45.797Z,100077.63
2022-12-11T17:31:16.662Z,100076.63
2022-12-11T17:33:46.102Z,100083.44
2022-12-11T17:36:15.708Z,100076.50
2022-12-11T17:38:43.093Z,100073.63
2022-12-11T17:41:16.925Z,100079.75
2022-12-11T17:43:52.849Z,100072.78
2022-12-11T17:46:20.473Z,100071.50
2022-12-11T17:48:48.603Z,100071.50
2022-12-11T17:51:21.887Z,100076.66
2022-12-11T17:53:48.797Z,100074.38
2022-12-11T17:56:17.229Z,100068.28
2022-12-11T17:58:44.463Z,100070.53
2022-12-11T18:01:13.072Z,100077.47
2022-12-11T18:03:41.028Z,100074.72
2022-12-11T18:06:15.970Z,100072.94
2022-12-11T18:08:44.286Z,100072.97
2022-12-11T18:11:17.077Z,100074.88
2022-12-11T18:13:45.431Z,100080.22
2022-12-11T18:16:24.470Z,100069.88
2022-12-11T18:18:52.028Z,100071.50
2022-12-11T18:21:24.997Z,100075.00
2022-12-11T18:23:52.469Z,100073.41
2022-12-11T18:26:19.886Z,100073.09
2022-12-11T18:28:49.101Z,100074.53
2022-12-11T18:31:17.068Z,100078.88
2022-12-11T18:33:45.275Z,100081.97
2022-12-11T18:36:15.596Z,100082.13
2022-12-11T18:38:44.469Z,100081.16
2022-12-11T18:41:13.166Z,100082.94
2022-12-11T18:43:40.472Z,100080.00
2022-12-11T18:46:08.517Z,100081.47
2022-12-11T18:48:36.301Z,100081.44
2022-12-11T18:51:14.459Z,100087.22
2022-12-11T18:53:42.155Z,100087.53
2022-12-11T18:56:12.551Z,100091.69
2022-12-11T18:58:40.424Z,100086.06
2022-12-11T19:01:34.563Z,100087.53
2022-12-11T19:04:06.533Z,100081.59
2022-12-11T19:06:36.150Z,100079.00
2022-12-11T19:09:05.893Z,100080.94
2022-12-11T19:11:35.125Z,100084.81
2022-12-11T19:14:04.458Z,100084.34
2022-12-11T19:16:33.899Z,100080.28
2022-12-11T19:19:06.428Z,100089.53
2022-12-11T19:21:35.325Z,100079.66
2022-12-11T19:24:02.198Z,100082.69
2022-12-11T19:26:29.672Z,100079.97
2022-12-11T19:28:59.952Z,100077.75
2022-12-11T19:31:29.790Z,100084.03
2022-12-11T19:33:58.433Z,100081.09
2022-12-11T19:36:27.331Z,100074.19
2022-12-11T19:38:59.461Z,100081.59
2022-12-11T19:41:31.011Z,100074.94
2022-12-11T19:44:00.149Z,100083.00
2022-12-11T19:46:28.686Z,100084.44
2022-12-11T19:48:57.826Z,100084.72
2022-12-11T19:51:28.488Z,100074.91
2022-12-11T19:53:55.383Z,100079.72
2022-12-11T19:56:23.377Z,100086.00
2022-12-11T19:58:50.180Z,100080.75
2022-12-11T20:01:24.907Z,100077.69
2022-12-11T20:03:52.977Z,100078.66
2022-12-11T20:06:21.224Z,100078.06
2022-12-11T20:08:48.451Z,100082.44
2022-12-11T20:11:18.588Z,100074.34
2022-12-11T20:13:47.597Z,100072.72
2022-12-11T20:16:15.631Z,100074.22
2022-12-11T20:18:43.790Z,100072.56
2022-12-11T20:21:14.278Z,100080.03
2022-12-11T20:23:41.899Z,100072.56
2022-12-11T20:26:14.399Z,100087.78
2022-12-11T20:28:42.905Z,100084.16
2022-12-11T20:31:16.399Z,100094.34
2022-12-11T20:33:49.189Z,100089.63
2022-12-11T20:36:18.090Z,100096.41
2022-12-11T20:38:45.141Z,100097.25
2022-12-11T20:41:14.587Z,100091.41
2022-12-11T20:43:41.873Z,100089.44
2022-12-11T20:46:10.881Z,100081.53
2022-12-11T20:48:39.038Z,100084.97
2022-12-11T20:51:08.052Z,100083.47
2022-12-11T20:53:36.136Z,100076.13
2022-12-11T20:56:10.425Z,100082.88
2022-12-11T20:58:37.602Z,100075.63
2022-12-11T21:01:05.640Z,100076.59
2022-12-11T21:03:38.917Z,100073.56
2022-12-11T21:06:17.561Z,100076.47
2022-12-11T21:08:44.923Z,100076.63
2022-12-11T21:11:11.787Z,100072.97
2022-12-11T21:13:38.941Z,100069.28
2022-12-11T21:16:07.714Z,100083.16
2022-12-11T21:18:34.855Z,100079.59
2022-12-11T21:21:03.629Z,100082.34
2022-12-11T21:23:32.405Z,100085.63
2022-12-11T21:26:00.641Z,100082.34
2022-12-11T21:28:33.561Z,100081.09
2022-12-11T21:31:05.880Z,100088.91
2022-12-11T21:33:34.323Z,100087.09
2022-12-11T21:36:03.352Z,100086.47
2022-12-11T21:38:30.388Z,100092.16
2022-12-11T21:41:10.080Z,100081.94
2022-12-11T21:43:52.606Z,100082.22
2022-12-11T21:46:27.591Z,100087.72
2022-12-11T21:48:55.090Z,100088.97
2022-12-11T21:51:34.363Z,100090.16
2022-12-11T21:54:05.067Z,100093.84
2022-12-11T21:56:33.472Z,100090.44
2022-12-11T21:59:01.627Z,100086.59
2022-12-11T22:01:33.382Z,100086.00
2022-12-11T22:04:01.777Z,100092.31
2022-12-11T22:06:29.763Z,100083.56
2022-12-11T22:08:56.721Z,100094.00
2022-12-11T22:11:27.985Z,100093.47
2022-12-11T22:13:55.306Z,100094.00
2022-12-11T22:16:22.464Z,100103.59
2022-12-11T22:18:51.074Z,100100.25
2022-12-11T22:21:18.146Z,100107.81
2022-12-11T22:23:44.971Z,100104.72
2022-12-11T22:26:17.264Z,100103.59
2022-12-11T22:28:45.125Z,100103.47
2022-12-11T22:31:17.596Z,100118.78
2022-12-11T22:33:45.009Z,100113.16
2022-12-11T22:36:12.269Z,100113.97
2022-12-11T22:38:39.845Z,100116.88
2022-12-11T22:41:11.122Z,100117.69
2022-12-11T22:43:38.292Z,100116.75
2022-12-11T22:46:05.181Z,100116.53
2022-12-11T22:48:32.464Z,100122.00
2022-12-11T22:51:04.884Z,100120.88
2022-12-11T22:53:31.418Z,100123.00
2022-12-11T22:55:58.569Z,100136.66
2022-12-11T22:58:26.180Z,100126.19
2022-12-11T23:00:52.852Z,100122.47
2022-12-11T23:03:19.713Z,100125.34
2022-12-11T23:05:46.892Z,100130.41
2022-12-11T23:08:14.905Z,100124.59
2022-12-11T23:10:42.353Z,100113.50
2022-12-11T23:13:09.278Z,100114.81
2022-12-11T23:15:36.329Z,100114.44
2022-12-11T23:18:03.454Z,100108.97
2022-12-11T23:20:30.720Z,100114.44
2022-12-11T23:22:57.967Z,100117.09
2022-12-11T23:25:24.754Z,100110.31
2022-12-11T23:27:52.192Z,100108.06
2022-12-11T23:30:18.852Z,100119.97
2022-12-11T23:32:45.670Z,100111.25
2022-12-11T23:35:12.739Z,100106.19
2022-12-11T23:37:39.999Z,100117.81
2022-12-11T23:40:08.907Z,100120.97
2022-12-11T23:42:35.874Z,100124.25
2022-12-11T23:45:02.849Z,100121.56
2022-12-11T23:47:30.257Z,100123.38
2022-12-11T23:49:57.103Z,100127.94
2022-12-11T23:52:24.963Z,100123.88
2022-12-11T23:54:52.048Z,100128.69
2022-12-11T23:57:19.188Z,100126.91
2022-12-11T23:59:45.883Z,100141.44
